Winston Salem, NC (27106)

1:35 AM EDT on July 30, 2016 (GMT -0400)
Sunny Dell Lakes | | Change Station

Elev 774 ft 36.14 °N, 80.33 °W | Updated 4 seconds ago

Mostly Cloudy
Mostly Cloudy
75.8 °F
Feels Like 76 °F
N
0.0
Wind Variable Wind from NNW
Gusts 0.0 mph

Today
High -- | Low -- °F
--% Chance of Precip.
Yesterday
High -- | Low -- °F
Precip. -- in
Pressure 29.96 in
Visibility 10.0 miles
Clouds Few 5500 ft
Mostly Cloudy 11000 ft
Heat Index 76 °F
Dew Point 73 °F
Humidity 91%
Rainfall 0.00 in
Snow Depth Not available.
6:27 AM 8:27 PM
Waning Crescent, 16% visible
METAR KINT 300454Z AUTO 34005KT 10SM FEW055 BKN110 24/22 A3000 RMK AO2 RAB18E51 SLP146 P0000 T02440217 403280233
Pressure 29.96 in
Visibility 10.0 miles
Clouds Few 5500 ft
Mostly Cloudy 11000 ft
Heat Index 76 °F
Dew Point 73 °F
Humidity 91%
Rainfall 0.00 in
Snow Depth Not available.
6:27 AM 8:27 PM
Waning Crescent, 16% visible
METAR KINT 300454Z AUTO 34005KT 10SM FEW055 BKN110 24/22 A3000 RMK AO2 RAB18E51 SLP146 P0000 T02440217 403280233

10-Day Weather Forecast

Almanac

Astronomy

Jul. 30, 2016 Rise Set
Actual Time
Civil Twilight
Nautical Twilight
Astronomical Twilight
Moon
Length of Visible Light
Length of Day
Tomorrow will be .
, % of the Moon is Illuminated

Today's Extremes

State Highs State Lows

Community

WunderPhotos

Upload Photos

1,928,506 photos uploaded!

WunderBlog® & News

Nearby

Air Quality

  Air Quality AQ Index Pollutant
Not available.

Snow Depth

Station Depth Elevation

Earthquake Activity

City Distance Mag. Time & Date
Minimum magnitude displayed is 2.5.

Coastal Water Temperatures

Place Temperature

Stations

Nearby Weather Stations

Station Location Temp. Windchill Dew Point Humidity Wind Precip. Elev Updated Type
                   

Watches & Warnings

There are currently no watches in effect.